createdAt,value
2023-02-03T00:00:40.241Z,926.89
2023-02-03T00:01:40.340Z,926.86
2023-02-03T00:02:40.854Z,926.83
2023-02-03T00:03:40.195Z,926.84
2023-02-03T00:04:40.208Z,926.85
2023-02-03T00:05:40.167Z,926.81
2023-02-03T00:06:40.152Z,926.80
2023-02-03T00:07:40.185Z,926.83
2023-02-03T00:08:40.245Z,926.83
2023-02-03T00:09:40.330Z,926.83
2023-02-03T00:10:40.145Z,926.85
2023-02-03T00:11:40.090Z,926.88
2023-02-03T00:12:40.093Z,926.93
2023-02-03T00:13:40.127Z,926.93
2023-02-03T00:14:40.156Z,926.94
2023-02-03T00:15:40.756Z,926.95
2023-02-03T00:16:40.161Z,926.94
2023-02-03T00:17:40.106Z,927.00
2023-02-03T00:18:40.082Z,927.09
2023-02-03T00:19:40.089Z,927.06
2023-02-03T00:20:40.245Z,927.12
2023-02-03T00:21:40.108Z,927.17
2023-02-03T00:22:40.110Z,927.19
2023-02-03T00:23:40.150Z,927.22
2023-02-03T00:24:39.975Z,927.27
2023-02-03T00:25:40.029Z,927.30
2023-02-03T00:26:40.045Z,927.31
2023-02-03T00:27:40.403Z,927.30
2023-02-03T00:28:40.099Z,927.35
2023-02-03T00:29:39.904Z,927.34
2023-02-03T00:30:39.907Z,927.38
2023-02-03T00:31:40.040Z,927.40
2023-02-03T00:32:40.019Z,927.39
2023-02-03T00:33:40.005Z,927.43
2023-02-03T00:34:39.929Z,927.42
2023-02-03T00:35:39.874Z,927.43
2023-02-03T00:36:42.031Z,927.43
2023-02-03T00:37:39.848Z,927.44
2023-02-03T00:38:40.268Z,927.46
2023-02-03T00:39:40.274Z,927.46
2023-02-03T00:40:39.872Z,927.49
2023-02-03T00:41:39.778Z,927.50
2023-02-03T00:42:39.849Z,927.52
2023-02-03T00:43:39.784Z,927.55
2023-02-03T00:44:39.791Z,927.57
2023-02-03T00:45:39.859Z,927.59
2023-02-03T00:46:39.928Z,927.58
2023-02-03T00:47:39.764Z,927.60
2023-02-03T00:48:39.772Z,927.59
2023-02-03T00:49:39.776Z,927.62
2023-02-03T00:50:39.729Z,927.63
2023-02-03T00:51:39.784Z,927.64
2023-02-03T00:52:39.692Z,927.69
2023-02-03T00:53:39.696Z,927.71
2023-02-03T00:54:39.675Z,927.71
2023-02-03T00:55:39.758Z,927.72
2023-02-03T00:56:39.722Z,927.70
2023-02-03T00:57:39.940Z,927.73
2023-02-03T00:58:39.633Z,927.76
2023-02-03T00:59:39.585Z,927.74
2023-02-03T01:00:39.590Z,927.77
2023-02-03T01:01:39.667Z,927.75
2023-02-03T01:02:39.712Z,927.77
2023-02-03T01:03:39.727Z,927.73
2023-02-03T01:04:39.592Z,927.69
2023-02-03T01:05:39.530Z,927.70
2023-02-03T01:06:39.591Z,927.73
2023-02-03T01:07:39.535Z,927.71
2023-02-03T01:08:39.545Z,927.71
2023-02-03T01:09:39.759Z,927.77
2023-02-03T01:10:39.765Z,927.72
2023-02-03T01:11:39.469Z,927.75
2023-02-03T01:12:39.572Z,927.73
2023-02-03T01:13:39.481Z,927.75
2023-02-03T01:14:39.454Z,927.76
2023-02-03T01:15:39.483Z,927.75
2023-02-03T01:16:39.570Z,927.76
2023-02-03T01:17:39.494Z,927.78
2023-02-03T01:18:39.415Z,927.82
2023-02-03T01:19:39.475Z,927.82
2023-02-03T01:20:39.415Z,927.84
2023-02-03T01:21:39.437Z,927.83
2023-02-03T01:22:39.394Z,927.86
2023-02-03T01:23:39.338Z,927.90
2023-02-03T01:24:39.357Z,927.93
2023-02-03T01:25:39.354Z,927.93
2023-02-03T01:26:39.322Z,927.92
2023-02-03T01:27:39.403Z,927.90
2023-02-03T01:28:39.361Z,927.93
2023-02-03T01:29:39.368Z,927.88
2023-02-03T01:30:39.953Z,927.91
2023-02-03T01:31:39.414Z,927.92
2023-02-03T01:32:39.300Z,927.92
2023-02-03T01:33:39.264Z,927.93
2023-02-03T01:34:39.275Z,927.99
2023-02-03T01:35:39.283Z,928.01
2023-02-03T01:36:39.738Z,927.99
2023-02-03T01:37:39.307Z,927.99
2023-02-03T01:38:39.199Z,928.04
2023-02-03T01:39:39.247Z,928.05
2023-02-03T01:40:39.213Z,928.06
2023-02-03T01:41:39.278Z,928.04
2023-02-03T01:42:39.264Z,928.04
2023-02-03T01:43:39.175Z,928.07
2023-02-03T01:44:39.166Z,928.05
2023-02-03T01:45:39.173Z,928.05
2023-02-03T01:46:39.150Z,928.02
2023-02-03T01:47:39.096Z,928.04
2023-02-03T01:48:39.102Z,928.07
2023-02-03T01:49:39.107Z,928.03
2023-02-03T01:50:39.110Z,928.04
2023-02-03T01:51:39.082Z,928.04
2023-02-03T01:52:39.085Z,927.97
2023-02-03T01:53:39.031Z,927.99
2023-02-03T01:54:39.041Z,927.95
2023-02-03T01:55:39.086Z,928.01
2023-02-03T01:56:39.057Z,927.99
2023-02-03T01:57:39.060Z,928.01
2023-02-03T01:58:39.007Z,927.93
2023-02-03T01:59:39.009Z,927.96
2023-02-03T02:00:38.961Z,927.99
2023-02-03T02:01:39.045Z,928.01
2023-02-03T02:02:39.102Z,927.96
2023-02-03T02:03:38.962Z,927.93
2023-02-03T02:04:40.739Z,927.88
2023-02-03T02:05:39.150Z,927.82
2023-02-03T02:06:38.903Z,927.81
2023-02-03T02:07:38.970Z,927.82
2023-02-03T02:08:38.926Z,927.80
2023-02-03T02:09:38.884Z,927.76
2023-02-03T02:10:38.889Z,927.81
2023-02-03T02:11:38.898Z,927.76
2023-02-03T02:12:38.846Z,927.77
2023-02-03T02:13:38.998Z,927.81
2023-02-03T02:14:38.908Z,927.84
2023-02-03T02:15:38.820Z,927.76
2023-02-03T02:16:38.812Z,927.78
2023-02-03T02:17:38.828Z,927.75
2023-02-03T02:18:38.786Z,927.81
2023-02-03T02:19:39.526Z,927.77
2023-02-03T02:20:38.808Z,927.74
2023-02-03T02:21:38.749Z,927.79
2023-02-03T02:22:38.953Z,927.78
2023-02-03T02:23:38.753Z,927.76
2023-02-03T02:24:38.774Z,927.80
2023-02-03T02:25:38.788Z,927.75
2023-02-03T02:26:38.787Z,927.77
2023-02-03T02:27:38.770Z,927.78
2023-02-03T02:28:38.786Z,927.78
2023-02-03T02:29:38.666Z,927.80
2023-02-03T02:30:38.908Z,927.77
2023-02-03T02:31:38.881Z,927.82
2023-02-03T02:32:38.726Z,927.78
2023-02-03T02:33:38.926Z,927.80
2023-02-03T02:34:38.628Z,927.89
2023-02-03T02:35:38.629Z,927.86
2023-02-03T02:36:38.635Z,927.90
2023-02-03T02:37:38.646Z,927.89
2023-02-03T02:38:38.647Z,927.78
2023-02-03T02:39:38.641Z,927.73
2023-02-03T02:40:38.625Z,927.75
2023-02-03T02:41:39.191Z,927.74
2023-02-03T02:42:38.580Z,927.72
2023-02-03T02:43:38.587Z,927.68
2023-02-03T02:44:38.538Z,927.72
2023-02-03T02:45:39.108Z,927.70
2023-02-03T02:46:38.607Z,927.71
2023-02-03T02:47:38.423Z,927.68
2023-02-03T02:48:38.464Z,927.69
2023-02-03T02:49:38.434Z,927.67
2023-02-03T02:50:38.532Z,927.63
2023-02-03T02:51:38.561Z,927.65
2023-02-03T02:52:38.543Z,927.64
2023-02-03T02:53:38.396Z,927.62
2023-02-03T02:54:38.367Z,927.61
2023-02-03T02:55:38.375Z,927.59
2023-02-03T02:56:38.467Z,927.54
2023-02-03T02:57:38.475Z,927.54
2023-02-03T02:58:38.456Z,927.50
2023-02-03T02:59:38.364Z,927.49
2023-02-03T03:00:38.777Z,927.48
2023-02-03T03:01:38.349Z,927.48
2023-02-03T03:02:38.405Z,927.44
2023-02-03T03:03:38.323Z,927.45
2023-02-03T03:04:38.351Z,927.41
2023-02-03T03:05:38.299Z,927.42
2023-02-03T03:06:38.344Z,927.40
2023-02-03T03:07:38.261Z,927.38
2023-02-03T03:08:38.347Z,927.37
2023-02-03T03:09:38.421Z,927.36
2023-02-03T03:10:38.234Z,927.34
2023-02-03T03:11:38.272Z,927.34
2023-02-03T03:12:38.253Z,927.29
2023-02-03T03:13:38.247Z,927.28
2023-02-03T03:14:38.281Z,927.23
2023-02-03T03:15:38.425Z,927.23
2023-02-03T03:16:38.197Z,927.19
2023-02-03T03:17:38.205Z,927.17
2023-02-03T03:18:38.208Z,927.17
2023-02-03T03:19:38.127Z,927.17
2023-02-03T03:20:38.123Z,927.15
2023-02-03T03:21:38.227Z,927.10
2023-02-03T03:22:38.093Z,927.09
2023-02-03T03:23:38.073Z,927.06
2023-02-03T03:24:38.127Z,927.04
2023-02-03T03:25:38.157Z,927.00
2023-02-03T03:26:38.125Z,926.98
2023-02-03T03:27:38.161Z,926.97
2023-02-03T03:28:38.024Z,926.96
2023-02-03T03:29:38.052Z,926.89
2023-02-03T03:30:38.046Z,926.86
2023-02-03T03:31:38.337Z,926.80
2023-02-03T03:32:38.000Z,926.75
2023-02-03T03:33:38.041Z,926.75
2023-02-03T03:34:38.093Z,926.70
2023-02-03T03:35:38.013Z,926.66
2023-02-03T03:36:38.017Z,926.63
2023-02-03T03:37:37.965Z,926.59
2023-02-03T03:38:38.004Z,926.55
2023-02-03T03:39:37.978Z,926.52
2023-02-03T03:40:37.883Z,926.48
2023-02-03T03:41:37.888Z,926.45
2023-02-03T03:42:37.937Z,926.40
2023-02-03T03:43:37.941Z,926.37
2023-02-03T03:44:37.949Z,926.36
2023-02-03T03:45:37.873Z,926.34
2023-02-03T03:46:37.827Z,926.31
2023-02-03T03:47:37.867Z,926.29
2023-02-03T03:48:37.871Z,926.26
2023-02-03T03:49:37.841Z,926.19
2023-02-03T03:50:37.854Z,926.14
2023-02-03T03:51:37.848Z,926.10
2023-02-03T03:52:37.803Z,926.07
2023-02-03T03:53:38.479Z,926.03
2023-02-03T03:54:37.770Z,926.03
2023-02-03T03:55:37.781Z,926.00
2023-02-03T03:56:37.784Z,926.00
2023-02-03T03:57:37.705Z,926.01
2023-02-03T03:58:37.695Z,926.00
2023-02-03T03:59:37.742Z,926.00
2023-02-03T04:00:37.859Z,925.98
2023-02-03T04:01:37.832Z,925.97
2023-02-03T04:02:37.888Z,925.96
2023-02-03T04:03:37.727Z,925.95
2023-02-03T04:04:37.648Z,925.95
2023-02-03T04:05:37.635Z,925.94
2023-02-03T04:06:37.682Z,925.94
2023-02-03T04:07:37.721Z,925.93
2023-02-03T04:08:37.804Z,925.93
2023-02-03T04:09:37.583Z,925.91
2023-02-03T04:10:37.645Z,925.91
2023-02-03T04:11:37.578Z,925.89
2023-02-03T04:12:37.654Z,925.87
2023-02-03T04:13:37.635Z,925.84
2023-02-03T04:14:37.591Z,925.81
2023-02-03T04:15:37.495Z,925.80
2023-02-03T04:16:37.554Z,925.79
2023-02-03T04:17:37.539Z,925.77
2023-02-03T04:18:37.549Z,925.77
2023-02-03T04:19:37.527Z,925.76
2023-02-03T04:20:37.556Z,925.74
2023-02-03T04:21:37.468Z,925.74
2023-02-03T04:22:37.504Z,925.74
2023-02-03T04:23:37.481Z,925.73
2023-02-03T04:24:37.548Z,925.71
2023-02-03T04:25:37.530Z,925.67
2023-02-03T04:26:37.564Z,925.65
2023-02-03T04:27:37.678Z,925.62
2023-02-03T04:28:37.574Z,925.59
2023-02-03T04:29:37.508Z,925.58
2023-02-03T04:30:37.571Z,925.57
2023-02-03T04:31:37.522Z,925.57
2023-02-03T04:32:37.451Z,925.55
2023-02-03T04:33:37.401Z,925.54
2023-02-03T04:34:37.449Z,925.53
2023-02-03T04:35:37.408Z,925.52
2023-02-03T04:36:37.432Z,925.50
2023-02-03T04:37:37.345Z,925.49
2023-02-03T04:38:38.284Z,925.49
2023-02-03T04:39:37.350Z,925.48
2023-02-03T04:40:37.330Z,925.48
2023-02-03T04:41:37.313Z,925.46
2023-02-03T04:42:37.291Z,925.46
2023-02-03T04:43:37.244Z,925.46
2023-02-03T04:44:37.303Z,925.44
2023-02-03T04:45:37.340Z,925.42
2023-02-03T04:46:37.229Z,925.40
2023-02-03T04:47:37.223Z,925.40
2023-02-03T04:48:37.203Z,925.41
2023-02-03T04:49:37.208Z,925.39
2023-02-03T04:50:37.239Z,925.38
2023-02-03T04:51:37.155Z,925.36
2023-02-03T04:52:37.162Z,925.32
2023-02-03T04:53:37.109Z,925.32
2023-02-03T04:54:37.159Z,925.32
2023-02-03T04:55:37.123Z,925.31
2023-02-03T04:56:37.175Z,925.29
2023-02-03T04:57:37.147Z,925.29
2023-02-03T04:58:37.159Z,925.27
2023-02-03T04:59:37.191Z,925.30
2023-02-03T05:00:37.097Z,925.26
2023-02-03T05:01:37.061Z,925.23
2023-02-03T05:02:37.066Z,925.24
2023-02-03T05:03:37.097Z,925.23
2023-02-03T05:04:36.989Z,925.22
2023-02-03T05:05:36.989Z,925.19
2023-02-03T05:06:37.032Z,925.18
2023-02-03T05:07:36.989Z,925.14
2023-02-03T05:08:36.860Z,925.12
2023-02-03T05:09:36.949Z,925.11
2023-02-03T05:10:36.916Z,925.08
2023-02-03T05:11:36.964Z,925.08
2023-02-03T05:12:37.331Z,925.09
2023-02-03T05:13:36.880Z,925.08
2023-02-03T05:14:36.876Z,925.04
2023-02-03T05:15:36.837Z,925.01
2023-02-03T05:16:36.991Z,924.98
2023-02-03T05:17:36.859Z,924.95
2023-02-03T05:18:36.903Z,924.93
2023-02-03T05:19:36.814Z,924.93
2023-02-03T05:20:36.821Z,924.89
2023-02-03T05:21:36.822Z,924.85
2023-02-03T05:22:36.833Z,924.87
2023-02-03T05:23:36.956Z,924.83
2023-02-03T05:24:36.814Z,924.84
2023-02-03T05:25:36.744Z,924.82
2023-02-03T05:26:36.800Z,924.80
2023-02-03T05:27:36.753Z,924.77
2023-02-03T05:28:36.704Z,924.77
2023-02-03T05:29:36.711Z,924.74
2023-02-03T05:30:36.741Z,924.74
2023-02-03T05:31:36.723Z,924.75
2023-02-03T05:32:36.659Z,924.74
2023-02-03T05:33:36.636Z,924.72
2023-02-03T05:34:36.647Z,924.71
2023-02-03T05:35:36.647Z,924.71
2023-02-03T05:36:36.627Z,924.71
2023-02-03T05:37:36.630Z,924.68
2023-02-03T05:38:36.735Z,924.64
2023-02-03T05:39:36.577Z,924.62
2023-02-03T05:40:36.645Z,924.59
2023-02-03T05:41:36.660Z,924.59
2023-02-03T05:42:36.562Z,924.54
2023-02-03T05:43:36.501Z,924.54
2023-02-03T05:44:36.504Z,924.51
2023-02-03T05:45:36.561Z,924.49
2023-02-03T05:46:37.356Z,924.46
2023-02-03T05:47:36.517Z,924.47
2023-02-03T05:48:36.442Z,924.44
2023-02-03T05:49:36.435Z,924.44
2023-02-03T05:50:38.606Z,924.41
2023-02-03T05:51:36.452Z,924.41
2023-02-03T05:52:36.767Z,924.41
2023-02-03T05:53:36.457Z,924.40
2023-02-03T05:54:36.371Z,924.37
2023-02-03T05:55:36.372Z,924.37
2023-02-03T05:56:36.448Z,924.38
2023-02-03T05:57:36.387Z,924.38
2023-02-03T05:58:36.806Z,924.38
2023-02-03T05:59:36.472Z,924.40
2023-02-03T06:00:36.368Z,924.41
2023-02-03T06:01:36.309Z,924.43
2023-02-03T06:02:36.330Z,924.43
2023-02-03T06:03:36.535Z,924.42
2023-02-03T06:04:36.848Z,924.44
2023-02-03T06:05:36.335Z,924.42
2023-02-03T06:06:36.248Z,924.42
2023-02-03T06:07:36.343Z,924.40
2023-02-03T06:08:36.269Z,924.39
2023-02-03T06:09:36.877Z,924.40
2023-02-03T06:10:36.263Z,924.39
2023-02-03T06:11:36.384Z,924.38
2023-02-03T06:12:36.174Z,924.37
2023-02-03T06:13:36.183Z,924.34
2023-02-03T06:14:36.314Z,924.34
2023-02-03T06:15:36.200Z,924.32
2023-02-03T06:16:36.287Z,924.31
2023-02-03T06:17:36.212Z,924.32
2023-02-03T06:18:36.122Z,924.31
2023-02-03T06:19:36.125Z,924.31
2023-02-03T06:20:36.141Z,924.31
2023-02-03T06:21:36.137Z,924.31
2023-02-03T06:22:36.155Z,924.30
2023-02-03T06:23:36.154Z,924.31
2023-02-03T06:24:36.051Z,924.31
2023-02-03T06:25:36.083Z,924.31
2023-02-03T06:26:36.077Z,924.32
2023-02-03T06:27:36.225Z,924.30
2023-02-03T06:28:36.096Z,924.30
2023-02-03T06:29:36.104Z,924.30
2023-02-03T06:30:36.166Z,924.32
2023-02-03T06:31:36.076Z,924.31
2023-02-03T06:32:36.016Z,924.31
2023-02-03T06:33:36.005Z,924.33
2023-02-03T06:34:36.019Z,924.32
2023-02-03T06:35:36.015Z,924.30
2023-02-03T06:36:35.946Z,924.31
2023-02-03T06:37:35.930Z,924.31
2023-02-03T06:38:35.973Z,924.28
2023-02-03T06:39:35.956Z,924.26
2023-02-03T06:40:35.950Z,924.26
2023-02-03T06:41:36.033Z,924.24
2023-02-03T06:42:35.890Z,924.25
2023-02-03T06:43:35.882Z,924.23
2023-02-03T06:44:35.891Z,924.24
2023-02-03T06:45:35.887Z,924.23
2023-02-03T06:46:35.932Z,924.22
2023-02-03T06:47:35.873Z,924.21
2023-02-03T06:48:35.815Z,924.20
2023-02-03T06:49:35.931Z,924.21
2023-02-03T06:50:35.828Z,924.20
2023-02-03T06:51:35.833Z,924.21
2023-02-03T06:52:35.918Z,924.21
2023-02-03T06:53:35.803Z,924.22
2023-02-03T06:54:35.809Z,924.22
2023-02-03T06:55:35.756Z,924.20
2023-02-03T06:56:35.799Z,924.19
2023-02-03T06:57:35.760Z,924.18
2023-02-03T06:58:35.782Z,924.15
2023-02-03T06:59:35.787Z,924.16
2023-02-03T07:00:35.697Z,924.13
2023-02-03T07:01:35.767Z,924.09
2023-02-03T07:02:35.741Z,924.10
2023-02-03T07:03:35.706Z,924.08
2023-02-03T07:04:35.719Z,924.11
2023-02-03T07:05:35.701Z,924.14
2023-02-03T07:06:35.620Z,924.16
2023-02-03T07:07:35.635Z,924.16
2023-02-03T07:08:35.634Z,924.19
2023-02-03T07:09:35.651Z,924.22
2023-02-03T07:10:35.666Z,924.20
2023-02-03T07:11:35.615Z,924.20
2023-02-03T07:12:35.568Z,924.17
2023-02-03T07:13:35.639Z,924.15
2023-02-03T07:14:35.577Z,924.13
2023-02-03T07:15:35.973Z,924.12
2023-02-03T07:16:35.657Z,924.11
2023-02-03T07:17:36.045Z,924.09
2023-02-03T07:18:46.927Z,924.10
2023-02-03T07:19:35.507Z,924.11
2023-02-03T07:20:35.511Z,924.14
2023-02-03T07:21:35.917Z,924.14
2023-02-03T07:22:35.491Z,924.12
2023-02-03T07:23:35.431Z,924.12
2023-02-03T07:24:35.442Z,924.14
2023-02-03T07:25:35.502Z,924.15
2023-02-03T07:26:35.421Z,924.16
2023-02-03T07:27:35.462Z,924.15
2023-02-03T07:28:35.403Z,924.16
2023-02-03T07:29:35.375Z,924.18
2023-02-03T07:30:35.379Z,924.19
2023-02-03T07:31:35.505Z,924.19
2023-02-03T07:32:35.393Z,924.20
2023-02-03T07:33:35.874Z,924.21
2023-02-03T07:34:35.430Z,924.20
2023-02-03T07:35:35.388Z,924.22
2023-02-03T07:36:35.424Z,924.24
2023-02-03T07:37:35.406Z,924.25
2023-02-03T07:38:35.366Z,924.29
2023-02-03T07:39:35.348Z,924.28
2023-02-03T07:40:35.381Z,924.29
2023-02-03T07:41:35.323Z,924.28
2023-02-03T07:42:35.339Z,924.29
2023-02-03T07:43:35.314Z,924.30
2023-02-03T07:44:35.296Z,924.29
2023-02-03T07:45:35.311Z,924.28
2023-02-03T07:46:35.387Z,924.30
2023-02-03T07:47:35.284Z,924.30
2023-02-03T07:48:35.294Z,924.34
2023-02-03T07:49:35.247Z,924.35
2023-02-03T07:50:35.275Z,924.38
2023-02-03T07:51:35.251Z,924.38
2023-02-03T07:52:35.257Z,924.43
2023-02-03T07:53:35.205Z,924.45
2023-02-03T07:54:35.216Z,924.47
2023-02-03T07:55:35.214Z,924.48
2023-02-03T07:56:35.193Z,924.49
2023-02-03T07:57:35.203Z,924.51
2023-02-03T07:58:35.198Z,924.52
2023-02-03T07:59:35.156Z,924.52
2023-02-03T08:00:35.158Z,924.53
2023-02-03T08:01:35.146Z,924.54
2023-02-03T08:02:35.119Z,924.54
2023-02-03T08:03:35.137Z,924.55
2023-02-03T08:04:35.156Z,924.56
2023-02-03T08:05:35.074Z,924.58
2023-02-03T08:06:35.094Z,924.60
2023-02-03T08:07:35.056Z,924.59
2023-02-03T08:08:35.108Z,924.63
2023-02-03T08:09:35.008Z,924.64
2023-02-03T08:10:35.023Z,924.66
2023-02-03T08:11:35.044Z,924.69
2023-02-03T08:12:35.026Z,924.72
2023-02-03T08:13:34.996Z,924.73
2023-02-03T08:14:35.001Z,924.75
2023-02-03T08:15:35.008Z,924.77
2023-02-03T08:16:35.039Z,924.79
2023-02-03T08:17:34.966Z,924.81
2023-02-03T08:18:34.982Z,924.81
2023-02-03T08:19:34.891Z,924.82
2023-02-03T08:20:34.948Z,924.84
2023-02-03T08:21:34.899Z,924.85
2023-02-03T08:22:34.897Z,924.84
2023-02-03T08:23:34.916Z,924.85
2023-02-03T08:24:35.422Z,924.85
2023-02-03T08:25:34.890Z,924.85
2023-02-03T08:26:34.882Z,924.86
2023-02-03T08:27:34.894Z,924.89
2023-02-03T08:28:34.848Z,924.90
2023-02-03T08:29:34.842Z,924.92
2023-02-03T08:30:34.898Z,924.94
2023-02-03T08:31:34.913Z,924.96
2023-02-03T08:32:34.821Z,924.95
2023-02-03T08:33:34.765Z,924.94
2023-02-03T08:34:34.740Z,924.95
2023-02-03T08:35:34.856Z,924.95
2023-02-03T08:36:34.799Z,924.97
2023-02-03T08:37:34.688Z,925.00
2023-02-03T08:38:34.704Z,925.01
2023-02-03T08:39:34.720Z,925.03
2023-02-03T08:40:34.770Z,925.05
2023-02-03T08:41:34.770Z,925.07
2023-02-03T08:42:34.621Z,925.07
2023-02-03T08:43:34.681Z,925.08
2023-02-03T08:44:34.696Z,925.09
2023-02-03T08:45:34.728Z,925.09
2023-02-03T08:46:34.602Z,925.12
2023-02-03T08:47:34.551Z,925.13
2023-02-03T08:48:34.581Z,925.13
2023-02-03T08:49:34.567Z,925.14
2023-02-03T08:50:34.879Z,925.15
2023-02-03T08:51:34.584Z,925.17
2023-02-03T08:52:34.590Z,925.20
2023-02-03T08:53:34.494Z,925.23
2023-02-03T08:54:34.571Z,925.26
2023-02-03T08:55:34.536Z,925.27
2023-02-03T08:56:34.538Z,925.31
2023-02-03T08:57:34.485Z,925.33
2023-02-03T08:58:34.494Z,925.38
2023-02-03T08:59:34.457Z,925.40
2023-02-03T09:00:34.482Z,925.43
2023-02-03T09:01:34.467Z,925.44
2023-02-03T09:02:34.512Z,925.44
2023-02-03T09:03:34.508Z,925.44
2023-02-03T09:04:34.492Z,925.45
2023-02-03T09:05:34.446Z,925.47
2023-02-03T09:06:34.401Z,925.48
2023-02-03T09:07:34.424Z,925.51
2023-02-03T09:08:34.386Z,925.53
2023-02-03T09:09:35.138Z,925.55
2023-02-03T09:10:34.322Z,925.56
2023-02-03T09:11:34.267Z,925.58
2023-02-03T09:12:34.336Z,925.60
2023-02-03T09:13:34.286Z,925.61
2023-02-03T09:14:34.312Z,925.61
2023-02-03T09:15:34.327Z,925.62
2023-02-03T09:16:34.304Z,925.64
2023-02-03T09:17:34.229Z,925.64
2023-02-03T09:18:34.237Z,925.65
2023-02-03T09:19:36.343Z,925.69
2023-02-03T09:20:34.282Z,925.70
2023-02-03T09:21:36.306Z,925.70
2023-02-03T09:22:34.166Z,925.71
2023-02-03T09:23:34.243Z,925.74
2023-02-03T09:24:34.211Z,925.75
2023-02-03T09:25:34.239Z,925.75
2023-02-03T09:26:34.246Z,925.77
2023-02-03T09:27:34.204Z,925.77
2023-02-03T09:28:34.175Z,925.81
2023-02-03T09:29:34.109Z,925.81
2023-02-03T09:30:34.201Z,925.84
2023-02-03T09:31:34.211Z,925.84
2023-02-03T09:32:34.167Z,925.86
2023-02-03T09:33:34.034Z,925.87
2023-02-03T09:34:34.109Z,925.86
2023-02-03T09:35:34.086Z,925.87
2023-02-03T09:36:34.097Z,925.87
2023-02-03T09:37:34.101Z,925.88
2023-02-03T09:38:34.109Z,925.88
2023-02-03T09:39:34.046Z,925.88
2023-02-03T09:40:34.249Z,925.86
2023-02-03T09:41:34.058Z,925.87
2023-02-03T09:42:34.040Z,925.86
2023-02-03T09:43:34.029Z,925.85
2023-02-03T09:44:34.066Z,925.84
2023-02-03T09:45:34.007Z,925.84
2023-02-03T09:46:33.954Z,925.85
2023-02-03T09:47:33.989Z,925.86
2023-02-03T09:48:33.966Z,925.85
2023-02-03T09:49:33.971Z,925.83
2023-02-03T09:50:34.652Z,925.81
2023-02-03T09:51:33.892Z,925.81
2023-02-03T09:52:33.852Z,925.81
2023-02-03T09:53:33.922Z,925.85
2023-02-03T09:54:33.910Z,925.86
2023-02-03T09:55:33.976Z,925.88
2023-02-03T09:56:33.921Z,925.93
2023-02-03T09:57:33.957Z,925.92
2023-02-03T09:58:33.840Z,925.92
2023-02-03T09:59:33.861Z,925.93
2023-02-03T10:00:33.797Z,925.95
2023-02-03T10:01:33.911Z,925.98
2023-02-03T10:02:33.978Z,925.99
2023-02-03T10:03:33.770Z,925.99
2023-02-03T10:04:33.900Z,926.00
2023-02-03T10:05:33.719Z,926.00
2023-02-03T10:06:33.815Z,925.99
2023-02-03T10:07:33.793Z,925.99
2023-02-03T10:08:34.041Z,926.00
2023-02-03T10:09:33.744Z,926.02
2023-02-03T10:10:33.762Z,926.04
2023-02-03T10:11:33.729Z,926.06
2023-02-03T10:12:33.958Z,926.08
2023-02-03T10:13:33.751Z,926.10
2023-02-03T10:14:33.955Z,926.11
2023-02-03T10:15:33.682Z,926.12
2023-02-03T10:16:33.716Z,926.10
2023-02-03T10:17:33.677Z,926.13
2023-02-03T10:18:33.611Z,926.10
2023-02-03T10:19:33.699Z,926.13
2023-02-03T10:20:34.107Z,926.13
2023-02-03T10:21:33.585Z,926.13
2023-02-03T10:22:33.586Z,926.15
2023-02-03T10:23:33.638Z,926.15
2023-02-03T10:24:33.633Z,926.15
2023-02-03T10:25:33.639Z,926.17
2023-02-03T10:26:34.028Z,926.17
2023-02-03T10:27:33.543Z,926.15
2023-02-03T10:28:33.534Z,926.16
2023-02-03T10:29:33.469Z,926.17
2023-02-03T10:30:34.086Z,926.18
2023-02-03T10:31:33.665Z,926.19
2023-02-03T10:32:33.952Z,926.22
2023-02-03T10:33:33.481Z,926.21
2023-02-03T10:34:33.490Z,926.23
2023-02-03T10:35:33.600Z,926.23
2023-02-03T10:36:33.462Z,926.24
2023-02-03T10:37:33.530Z,926.24
2023-02-03T10:38:33.421Z,926.24
2023-02-03T10:39:33.374Z,926.21
2023-02-03T10:40:33.427Z,926.26
2023-02-03T10:41:33.496Z,926.27
2023-02-03T10:42:33.338Z,926.25
2023-02-03T10:43:33.448Z,926.26
2023-02-03T10:44:33.403Z,926.24
2023-02-03T10:45:33.413Z,926.25
2023-02-03T10:46:33.470Z,926.26
2023-02-03T10:47:33.375Z,926.26
2023-02-03T10:48:33.277Z,926.29
2023-02-03T10:49:33.373Z,926.27
2023-02-03T10:50:33.344Z,926.29
2023-02-03T10:51:33.297Z,926.28
2023-02-03T10:52:33.262Z,926.28
2023-02-03T10:53:33.223Z,926.29
2023-02-03T10:54:33.331Z,926.29
2023-02-03T10:55:33.296Z,926.29
2023-02-03T10:56:33.225Z,926.31
2023-02-03T10:57:33.203Z,926.30
2023-02-03T10:58:33.200Z,926.31
2023-02-03T10:59:33.155Z,926.27
2023-02-03T11:00:33.224Z,926.27
2023-02-03T11:01:33.203Z,926.27
2023-02-03T11:02:33.246Z,926.31
2023-02-03T11:03:33.136Z,926.31
2023-02-03T11:04:33.163Z,926.30
2023-02-03T11:05:33.228Z,926.31
2023-02-03T11:06:33.103Z,926.34
2023-02-03T11:07:33.148Z,926.28
2023-02-03T11:08:33.105Z,926.34
2023-02-03T11:09:33.064Z,926.32
2023-02-03T11:10:33.078Z,926.33
2023-02-03T11:11:33.041Z,926.36
2023-02-03T11:12:33.033Z,926.34
2023-02-03T11:13:33.026Z,926.38
2023-02-03T11:14:33.036Z,926.39
2023-02-03T11:15:33.143Z,926.38
2023-02-03T11:16:33.970Z,926.40
2023-02-03T11:17:33.017Z,926.42
2023-02-03T11:18:32.988Z,926.43
2023-02-03T11:19:33.093Z,926.46
2023-02-03T11:20:32.983Z,926.48
2023-02-03T11:21:32.990Z,926.50
2023-02-03T11:22:32.968Z,926.50
2023-02-03T11:23:33.050Z,926.52
2023-02-03T11:24:32.962Z,926.55
2023-02-03T11:25:33.072Z,926.55
2023-02-03T11:26:32.867Z,926.53
2023-02-03T11:27:33.075Z,926.52
2023-02-03T11:28:33.488Z,926.56
2023-02-03T11:29:32.882Z,926.58
2023-02-03T11:30:32.841Z,926.63
2023-02-03T11:31:33.166Z,926.63
2023-02-03T11:32:32.914Z,926.60
2023-02-03T11:33:32.815Z,926.69
2023-02-03T11:34:32.779Z,926.68
2023-02-03T11:35:32.933Z,926.71
2023-02-03T11:36:32.863Z,926.71
2023-02-03T11:37:34.634Z,926.71
2023-02-03T11:38:32.807Z,926.71
2023-02-03T11:39:32.764Z,926.73
2023-02-03T11:40:32.768Z,926.75
2023-02-03T11:41:32.725Z,926.74
2023-02-03T11:42:32.956Z,926.77
2023-02-03T11:43:32.768Z,926.77
2023-02-03T11:44:33.415Z,926.76
2023-02-03T11:45:32.692Z,926.73
2023-02-03T11:46:32.904Z,926.76
2023-02-03T11:47:32.662Z,926.77
2023-02-03T11:48:32.672Z,926.76
2023-02-03T11:49:32.731Z,926.73
2023-02-03T11:50:32.631Z,926.76
2023-02-03T11:51:32.630Z,926.76
2023-02-03T11:52:32.703Z,926.75
2023-02-03T11:53:32.616Z,926.75
2023-02-03T11:54:32.623Z,926.78
2023-02-03T11:55:33.001Z,926.76
2023-02-03T11:56:32.574Z,926.78
2023-02-03T11:57:32.571Z,926.78
2023-02-03T11:58:32.684Z,926.81
2023-02-03T11:59:32.546Z,926.78
2023-02-03T12:00:32.548Z,926.80
2023-02-03T12:01:33.000Z,926.80
2023-02-03T12:02:32.583Z,926.80
2023-02-03T12:03:32.831Z,926.81
2023-02-03T12:04:32.496Z,926.84
2023-02-03T12:05:32.483Z,926.83
2023-02-03T12:06:32.456Z,926.84
2023-02-03T12:07:32.465Z,926.84
2023-02-03T12:08:32.442Z,926.89
2023-02-03T12:09:32.410Z,926.83
2023-02-03T12:10:32.425Z,926.95
2023-02-03T12:11:32.395Z,926.92
2023-02-03T12:12:32.393Z,926.91
2023-02-03T12:13:32.475Z,926.93
2023-02-03T12:14:33.202Z,926.92
2023-02-03T12:15:32.498Z,926.90
2023-02-03T12:16:32.552Z,926.87
2023-02-03T12:17:32.417Z,926.90
2023-02-03T12:18:32.361Z,926.91
2023-02-03T12:19:32.345Z,926.90
2023-02-03T12:20:33.272Z,926.93
2023-02-03T12:21:32.563Z,926.87
2023-02-03T12:22:32.565Z,926.94
2023-02-03T12:23:32.267Z,926.93
2023-02-03T12:24:32.261Z,926.99
2023-02-03T12:25:32.347Z,926.95
2023-02-03T12:26:32.287Z,926.96
2023-02-03T12:27:32.289Z,927.03
2023-02-03T12:28:33.999Z,926.99